createdAt,value
2023-04-07T00:01:02.580Z,27.95
2023-04-07T00:06:34.261Z,28.48
2023-04-07T00:09:01.714Z,29.90
2023-04-07T00:11:28.797Z,27.13
2023-04-07T00:13:56.375Z,25.95
2023-04-07T00:16:23.872Z,27.15
2023-04-07T00:18:51.313Z,28.33
2023-04-07T00:21:18.308Z,26.80
2023-04-07T00:23:47.116Z,25.58
2023-04-07T00:26:14.329Z,32.28
2023-04-07T00:28:44.225Z,29.52
2023-04-07T00:31:11.369Z,29.60
2023-04-07T00:33:38.692Z,26.40
2023-04-07T00:36:06.343Z,27.88
2023-04-07T00:38:33.715Z,29.02
2023-04-07T00:41:01.643Z,29.98
2023-04-07T00:43:28.982Z,29.67
2023-04-07T00:45:56.363Z,30.25
2023-04-07T00:48:24.009Z,26.88
2023-04-07T00:50:51.788Z,29.52
2023-04-07T00:53:19.950Z,27.90
2023-04-07T00:55:47.448Z,28.48
2023-04-07T00:58:14.753Z,30.63
2023-04-07T01:00:49.935Z,30.20
2023-04-07T01:03:26.207Z,27.90
2023-04-07T01:06:01.852Z,29.77
2023-04-07T01:08:51.648Z,28.63
2023-04-07T01:11:28.350Z,26.48
2023-04-07T01:13:58.972Z,28.48
2023-04-07T01:16:42.939Z,28.92
2023-04-07T01:19:35.724Z,30.30
2023-04-07T01:22:15.423Z,31.20
2023-04-07T01:24:58.078Z,29.55
2023-04-07T01:27:28.398Z,32.17
2023-04-07T01:29:56.968Z,28.17
2023-04-07T01:32:27.201Z,27.15
2023-04-07T01:34:57.329Z,32.95
2023-04-07T01:37:27.041Z,34.05
2023-04-07T01:39:54.786Z,30.98
2023-04-07T01:42:22.095Z,36.00
2023-04-07T01:44:51.194Z,28.13
2023-04-07T01:47:19.185Z,28.35
2023-04-07T01:49:48.203Z,31.65
2023-04-07T01:52:17.248Z,29.45
2023-04-07T01:54:45.579Z,28.38
2023-04-07T01:57:12.635Z,33.83
2023-04-07T01:59:41.388Z,30.83
2023-04-07T02:02:08.883Z,28.08
2023-04-07T02:04:45.448Z,29.42
2023-04-07T02:07:22.131Z,29.83
2023-04-07T02:09:56.646Z,32.80
2023-04-07T02:12:26.457Z,30.55
2023-04-07T02:15:09.346Z,31.70
2023-04-07T02:17:39.186Z,28.17
2023-04-07T02:20:10.048Z,25.52
2023-04-07T02:22:41.360Z,25.83
2023-04-07T02:25:28.573Z,27.52
2023-04-07T02:27:57.752Z,25.77
2023-04-07T02:30:26.088Z,27.00
2023-04-07T02:32:53.829Z,29.30
2023-04-07T02:35:21.313Z,26.23
2023-04-07T02:37:48.614Z,27.80
2023-04-07T02:40:16.404Z,26.70
2023-04-07T02:42:44.043Z,26.90
2023-04-07T02:45:12.233Z,31.05
2023-04-07T02:47:39.984Z,28.13
2023-04-07T02:50:07.848Z,28.73
2023-04-07T02:52:36.344Z,27.42
2023-04-07T02:55:10.298Z,29.63
2023-04-07T02:57:37.458Z,26.75
2023-04-07T03:00:10.226Z,27.27
2023-04-07T03:03:00.107Z,28.25
2023-04-07T03:05:31.495Z,27.17
2023-04-07T03:07:59.819Z,27.90
2023-04-07T03:10:27.460Z,29.73
2023-04-07T03:12:54.883Z,27.33
2023-04-07T03:15:22.930Z,25.27
2023-04-07T03:17:51.553Z,23.75
2023-04-07T03:20:19.895Z,25.90
2023-04-07T03:22:47.403Z,24.48
2023-04-07T03:25:27.962Z,24.63
2023-04-07T03:27:56.617Z,28.83
2023-04-07T03:30:26.401Z,24.98
2023-04-07T03:32:53.628Z,24.50
2023-04-07T03:35:21.470Z,26.48
2023-04-07T03:37:48.577Z,22.50
2023-04-07T03:40:18.747Z,23.90
2023-04-07T03:42:46.897Z,26.38
2023-04-07T03:45:15.781Z,23.63
2023-04-07T03:47:47.435Z,22.50
2023-04-07T03:50:16.252Z,23.50
2023-04-07T03:53:06.571Z,25.27
2023-04-07T03:55:35.080Z,27.10
2023-04-07T03:58:10.082Z,25.45
2023-04-07T04:00:38.455Z,25.70
2023-04-07T04:03:11.094Z,26.40
2023-04-07T04:05:46.890Z,25.00
2023-04-07T04:08:20.699Z,24.35
2023-04-07T04:10:48.198Z,25.00
2023-04-07T04:13:15.415Z,26.67
2023-04-07T04:15:43.898Z,24.67
2023-04-07T04:18:15.150Z,24.02
2023-04-07T04:20:43.357Z,23.55
2023-04-07T04:23:10.747Z,22.67
2023-04-07T04:25:40.854Z,23.45
2023-04-07T04:28:11.006Z,26.17
2023-04-07T04:30:38.663Z,25.52
2023-04-07T04:33:05.878Z,29.20
2023-04-07T04:35:54.216Z,26.60
2023-04-07T04:38:22.394Z,29.05
2023-04-07T04:40:55.482Z,25.20
2023-04-07T04:43:29.244Z,28.23
2023-04-07T04:45:57.035Z,24.85
2023-04-07T04:48:27.360Z,25.25
2023-04-07T04:50:54.907Z,25.10
2023-04-07T04:53:22.580Z,28.67
2023-04-07T04:55:56.256Z,28.73
2023-04-07T04:58:33.377Z,30.13
2023-04-07T05:01:01.317Z,30.48
2023-04-07T05:03:36.811Z,26.83
2023-04-07T05:06:11.603Z,27.38
2023-04-07T05:08:41.441Z,28.33
2023-04-07T05:11:09.500Z,29.30
2023-04-07T05:13:38.186Z,27.88
2023-04-07T05:16:06.683Z,25.60
2023-04-07T05:18:35.475Z,24.60
2023-04-07T05:21:04.651Z,25.63
2023-04-07T05:23:34.369Z,26.10
2023-04-07T05:26:02.983Z,24.42
2023-04-07T05:28:31.175Z,25.27
2023-04-07T05:31:03.833Z,22.38
2023-04-07T05:33:34.327Z,22.88
2023-04-07T05:36:03.523Z,26.90
2023-04-07T05:38:32.164Z,22.60
2023-04-07T05:41:06.343Z,19.08
2023-04-07T05:43:35.499Z,21.88
2023-04-07T05:46:02.849Z,23.02
2023-04-07T05:48:30.920Z,19.15
2023-04-07T05:50:59.109Z,24.02
2023-04-07T05:53:26.346Z,21.33
2023-04-07T05:55:53.788Z,24.90
2023-04-07T05:58:42.200Z,20.27
2023-04-07T06:01:10.942Z,25.13
2023-04-07T06:03:38.191Z,21.98
2023-04-07T06:06:12.543Z,17.88
2023-04-07T06:08:39.732Z,19.35
2023-04-07T06:11:07.057Z,20.17
2023-04-07T06:13:34.919Z,24.48
2023-04-07T06:16:03.385Z,20.38
2023-04-07T06:18:30.929Z,22.85
2023-04-07T06:20:59.526Z,21.83
2023-04-07T06:23:26.639Z,23.60
2023-04-07T06:25:54.200Z,19.27
2023-04-07T06:28:22.869Z,22.13
2023-04-07T06:30:50.471Z,23.25
2023-04-07T06:33:18.278Z,19.55
2023-04-07T06:35:46.593Z,24.85
2023-04-07T06:38:13.830Z,25.10
2023-04-07T06:40:41.273Z,22.25
2023-04-07T06:43:08.371Z,22.98
2023-04-07T06:45:43.000Z,22.48
2023-04-07T06:48:11.084Z,23.88
2023-04-07T06:50:38.744Z,21.05
2023-04-07T06:53:06.072Z,21.25
2023-04-07T06:55:33.361Z,21.23
2023-04-07T06:58:00.521Z,20.45
2023-04-07T07:00:30.232Z,19.13
2023-04-07T07:02:57.716Z,22.90
2023-04-07T07:05:25.575Z,19.27
2023-04-07T07:07:52.767Z,20.52
2023-04-07T07:10:23.008Z,17.73
2023-04-07T07:12:52.418Z,18.02
2023-04-07T07:15:19.736Z,22.33
2023-04-07T07:17:46.828Z,24.42
2023-04-07T07:20:14.426Z,20.95
2023-04-07T07:22:41.561Z,23.80
2023-04-07T07:25:09.286Z,22.58
2023-04-07T07:27:37.003Z,18.92
2023-04-07T07:30:05.645Z,20.30
2023-04-07T07:32:32.763Z,22.13
2023-04-07T07:35:00.311Z,22.65
2023-04-07T07:37:28.097Z,21.02
2023-04-07T07:39:56.351Z,27.05
2023-04-07T07:42:23.501Z,21.65
2023-04-07T07:44:51.046Z,22.58
2023-04-07T07:47:18.199Z,21.52
2023-04-07T07:49:45.630Z,20.83
2023-04-07T07:52:12.728Z,21.67
2023-04-07T07:54:40.004Z,19.55
2023-04-07T07:57:07.167Z,18.67
2023-04-07T07:59:34.848Z,19.27
2023-04-07T08:02:01.944Z,19.73
2023-04-07T08:04:29.441Z,16.73
2023-04-07T08:06:56.489Z,21.85
2023-04-07T08:09:23.905Z,23.88
2023-04-07T08:11:51.406Z,18.60
2023-04-07T08:14:19.092Z,18.73
2023-04-07T08:16:46.734Z,21.13
2023-04-07T08:19:14.101Z,20.40
2023-04-07T08:21:41.211Z,16.70
2023-04-07T08:24:10.059Z,17.08
2023-04-07T08:26:37.416Z,17.23
2023-04-07T08:29:04.791Z,15.60
2023-04-07T08:31:31.934Z,17.00
2023-04-07T08:33:59.908Z,20.05
2023-04-07T08:36:28.150Z,16.60
2023-04-07T08:38:55.653Z,21.42
2023-04-07T08:41:33.461Z,17.70
2023-04-07T08:44:02.427Z,17.77
2023-04-07T08:46:30.400Z,15.95
2023-04-07T08:48:58.152Z,14.98
2023-04-07T08:51:32.873Z,20.25
2023-04-07T08:54:14.880Z,15.88
2023-04-07T08:56:43.458Z,14.88
2023-04-07T08:59:13.744Z,18.20
2023-04-07T09:01:42.121Z,15.57
2023-04-07T09:04:10.876Z,16.40
2023-04-07T09:06:38.520Z,16.05
2023-04-07T09:09:06.313Z,11.85
2023-04-07T09:11:37.001Z,13.45
2023-04-07T09:14:04.529Z,12.60
2023-04-07T09:16:32.575Z,16.63
2023-04-07T09:19:00.025Z,16.25
2023-04-07T09:21:30.093Z,14.18
2023-04-07T09:23:57.573Z,16.38
2023-04-07T09:26:27.377Z,14.23
2023-04-07T09:29:03.100Z,15.48
2023-04-07T09:31:53.501Z,15.63
2023-04-07T09:34:29.008Z,15.48
2023-04-07T09:36:57.500Z,13.55
2023-04-07T09:39:25.763Z,15.73
2023-04-07T09:41:53.267Z,14.65
2023-04-07T09:44:25.045Z,15.88
2023-04-07T09:46:57.011Z,13.02
2023-04-07T09:49:26.147Z,16.42
2023-04-07T09:51:57.917Z,16.15
2023-04-07T09:54:39.342Z,13.82
2023-04-07T09:57:11.115Z,17.35
2023-04-07T09:59:42.578Z,12.43
2023-04-07T10:02:10.003Z,13.63
2023-04-07T10:04:39.159Z,12.55
2023-04-07T10:07:06.433Z,12.52
2023-04-07T10:09:33.913Z,12.93
2023-04-07T10:12:01.126Z,13.13
2023-04-07T10:14:31.287Z,14.05
2023-04-07T10:17:00.507Z,12.73
2023-04-07T10:19:34.584Z,13.20
2023-04-07T10:22:05.432Z,12.05
2023-04-07T10:24:45.188Z,11.48
2023-04-07T10:27:16.564Z,12.25
2023-04-07T10:29:47.846Z,14.85
2023-04-07T10:32:15.788Z,11.52
2023-04-07T10:34:53.657Z,11.43
2023-04-07T10:37:23.031Z,14.98
2023-04-07T10:40:09.353Z,10.02
2023-04-07T10:42:39.244Z,10.07
2023-04-07T10:45:09.294Z,16.60
2023-04-07T10:47:59.289Z,10.27
2023-04-07T10:50:26.804Z,11.50
2023-04-07T10:53:13.873Z,9.82
2023-04-07T10:55:43.768Z,9.15
2023-04-07T10:58:16.999Z,10.93
2023-04-07T11:01:07.601Z,11.73
2023-04-07T11:03:36.994Z,9.80
2023-04-07T11:06:08.420Z,9.88
2023-04-07T11:08:37.802Z,12.00
2023-04-07T11:11:09.741Z,12.35
2023-04-07T11:13:44.884Z,12.40
2023-04-07T11:16:12.984Z,12.47
2023-04-07T11:18:41.239Z,14.30
2023-04-07T11:21:09.522Z,11.20
2023-04-07T11:23:41.543Z,12.65
2023-04-07T11:26:13.204Z,12.27
2023-04-07T11:28:54.694Z,13.07
2023-04-07T11:31:29.385Z,13.07
2023-04-07T11:33:59.370Z,18.33
2023-04-07T11:36:31.181Z,11.98
2023-04-07T11:38:59.675Z,9.75
2023-04-07T11:41:30.587Z,14.30
2023-04-07T11:44:08.479Z,11.05
2023-04-07T11:46:36.454Z,9.90
2023-04-07T11:49:14.662Z,14.73
2023-04-07T11:51:44.337Z,12.00
2023-04-07T11:54:12.180Z,14.57
2023-04-07T11:56:47.159Z,16.85
2023-04-07T11:59:25.130Z,21.83
2023-04-07T12:01:55.443Z,15.48
2023-04-07T12:04:24.818Z,17.85
2023-04-07T12:06:52.292Z,15.55
2023-04-07T12:09:27.761Z,14.48
2023-04-07T12:11:57.132Z,16.38
2023-04-07T12:14:25.211Z,13.05
2023-04-07T12:16:56.238Z,17.38
2023-04-07T12:19:30.811Z,14.27
2023-04-07T12:21:58.119Z,16.73
2023-04-07T12:24:25.226Z,16.65
2023-04-07T12:26:53.125Z,14.82
2023-04-07T12:29:20.432Z,17.55
2023-04-07T12:31:50.762Z,15.48
2023-04-07T12:34:18.977Z,12.00
2023-04-07T12:36:46.336Z,15.57
2023-04-07T12:39:14.096Z,13.55
2023-04-07T12:41:42.101Z,18.50
2023-04-07T12:44:09.492Z,14.48
2023-04-07T12:46:37.157Z,12.02
2023-04-07T12:49:04.260Z,14.15
2023-04-07T12:51:33.480Z,14.10
2023-04-07T12:54:00.939Z,15.55
2023-04-07T12:56:28.728Z,11.38
2023-04-07T12:58:55.734Z,14.30
2023-04-07T13:01:23.145Z,14.50
2023-04-07T13:03:50.584Z,12.68
2023-04-07T13:06:19.404Z,10.40
2023-04-07T13:08:46.503Z,12.98
2023-04-07T13:11:13.855Z,12.00
2023-04-07T13:13:40.910Z,10.90
2023-04-07T13:16:08.633Z,11.02
2023-04-07T13:18:36.651Z,10.90
2023-04-07T13:23:42.894Z,12.45
2023-04-07T13:26:11.642Z,10.15
2023-04-07T13:28:39.149Z,9.65
2023-04-07T13:31:07.578Z,12.40
2023-04-07T13:33:35.538Z,9.80
2023-04-07T13:36:02.949Z,11.52
2023-04-07T13:38:30.227Z,9.85
2023-04-07T13:40:57.977Z,11.68
2023-04-07T13:43:25.137Z,11.18
2023-04-07T13:45:52.966Z,11.90
2023-04-07T13:48:20.728Z,13.38
2023-04-07T13:50:48.165Z,9.43
2023-04-07T13:53:17.828Z,9.85
2023-04-07T13:55:46.457Z,10.77
2023-04-07T13:58:13.517Z,9.35
2023-04-07T14:00:41.072Z,11.35
2023-04-07T14:03:08.708Z,9.95
2023-04-07T14:05:36.297Z,8.90
2023-04-07T14:08:03.332Z,11.18
2023-04-07T14:10:31.555Z,14.05
2023-04-07T14:12:58.716Z,12.13
2023-04-07T14:15:26.470Z,10.52
2023-04-07T14:17:54.236Z,8.90
2023-04-07T14:20:21.665Z,9.73
2023-04-07T14:22:48.702Z,10.60
2023-04-07T14:25:16.654Z,9.07
2023-04-07T14:27:43.864Z,9.95
2023-04-07T14:30:11.778Z,9.45
2023-04-07T14:32:38.839Z,10.75
2023-04-07T14:35:06.720Z,9.23
2023-04-07T14:37:35.868Z,12.43
2023-04-07T14:40:05.114Z,10.90
2023-04-07T14:42:33.411Z,10.35
2023-04-07T14:45:01.896Z,8.73
2023-04-07T14:47:29.287Z,9.25
2023-04-07T14:49:56.684Z,10.13
2023-04-07T14:52:23.753Z,10.50
2023-04-07T14:54:51.147Z,10.20
2023-04-07T14:57:18.148Z,10.35
2023-04-07T14:59:47.149Z,10.45
2023-04-07T15:02:14.373Z,10.20
2023-04-07T15:04:41.885Z,9.75
2023-04-07T15:07:09.479Z,7.75
2023-04-07T15:09:37.061Z,9.02
2023-04-07T15:12:05.290Z,10.88
2023-04-07T15:14:33.338Z,7.30
2023-04-07T15:17:00.728Z,8.90
2023-04-07T15:19:28.118Z,8.70
2023-04-07T15:21:55.240Z,8.07
2023-04-07T15:24:22.697Z,10.05
2023-04-07T15:26:50.201Z,9.75
2023-04-07T15:29:17.823Z,8.45
2023-04-07T15:31:45.025Z,11.30
2023-04-07T15:34:12.968Z,8.00
2023-04-07T15:36:40.397Z,8.95
2023-04-07T15:39:08.200Z,9.50
2023-04-07T15:41:35.865Z,8.75
2023-04-07T15:44:04.428Z,8.52
2023-04-07T15:46:34.470Z,11.45
2023-04-07T15:49:02.061Z,8.57
2023-04-07T15:51:29.948Z,8.80
2023-04-07T15:53:57.429Z,8.23
2023-04-07T15:56:24.879Z,10.25
2023-04-07T15:58:52.651Z,8.50
2023-04-07T16:01:20.128Z,8.65
2023-04-07T16:03:47.907Z,8.68
2023-04-07T16:06:15.483Z,8.10
2023-04-07T16:08:42.814Z,8.98
2023-04-07T16:11:09.911Z,12.30
2023-04-07T16:13:37.367Z,10.23
2023-04-07T16:16:04.793Z,10.93
2023-04-07T16:18:32.062Z,11.57
2023-04-07T16:20:59.239Z,10.10
2023-04-07T16:23:26.602Z,9.25
2023-04-07T16:25:53.692Z,8.20
2023-04-07T16:28:21.086Z,11.10
2023-04-07T16:30:48.168Z,9.88
2023-04-07T16:33:15.483Z,10.48
2023-04-07T16:35:42.838Z,11.68
2023-04-07T16:38:10.373Z,11.38
2023-04-07T16:40:37.440Z,13.18
2023-04-07T16:43:04.738Z,12.50
2023-04-07T16:45:31.854Z,13.32
2023-04-07T16:47:59.838Z,14.50
2023-04-07T16:50:27.157Z,13.52
2023-04-07T16:52:57.311Z,14.95
2023-04-07T16:55:24.528Z,12.75
2023-04-07T16:57:52.092Z,13.93
2023-04-07T17:00:20.282Z,12.30
2023-04-07T17:02:49.347Z,12.23
2023-04-07T17:05:18.069Z,12.07
2023-04-07T17:07:45.650Z,12.48
2023-04-07T17:10:14.061Z,11.20
2023-04-07T17:12:41.466Z,15.25
2023-04-07T17:15:09.081Z,12.68
2023-04-07T17:17:37.050Z,13.45
2023-04-07T17:20:04.843Z,12.48
2023-04-07T17:22:32.462Z,14.60
2023-04-07T17:24:59.512Z,13.93
2023-04-07T17:27:28.223Z,12.45
2023-04-07T17:29:55.890Z,13.40
2023-04-07T17:32:22.885Z,14.48
2023-04-07T17:34:50.280Z,12.70
2023-04-07T17:37:17.288Z,15.25
2023-04-07T17:39:44.770Z,15.55
2023-04-07T17:42:11.765Z,14.40
2023-04-07T17:44:39.098Z,20.45
2023-04-07T17:47:06.125Z,14.43
2023-04-07T17:49:33.683Z,15.85
2023-04-07T17:52:00.783Z,16.58
2023-04-07T17:54:28.322Z,17.35
2023-04-07T17:56:55.625Z,16.85
2023-04-07T17:59:23.019Z,13.85
2023-04-07T18:01:50.126Z,15.20
2023-04-07T18:04:17.703Z,14.88
2023-04-07T18:06:45.053Z,15.27
2023-04-07T18:09:12.430Z,13.35
2023-04-07T18:11:39.516Z,11.75
2023-04-07T18:14:07.308Z,9.43
2023-04-07T18:16:34.523Z,10.27
2023-04-07T18:19:02.859Z,10.13
2023-04-07T18:21:31.264Z,12.32
2023-04-07T18:23:58.680Z,13.18
2023-04-07T18:26:25.832Z,11.90
2023-04-07T18:28:53.394Z,13.07
2023-04-07T18:31:20.697Z,15.73
2023-04-07T18:33:49.058Z,9.65
2023-04-07T18:36:17.048Z,10.70
2023-04-07T18:38:44.604Z,11.10
2023-04-07T18:41:12.223Z,11.20
2023-04-07T18:43:39.535Z,10.68
2023-04-07T18:46:07.187Z,10.73
2023-04-07T18:48:34.834Z,8.90
2023-04-07T18:51:02.818Z,8.98
2023-04-07T18:53:30.223Z,7.90
2023-04-07T18:55:57.308Z,9.13
2023-04-07T18:58:24.700Z,9.32
2023-04-07T19:00:53.320Z,8.50
2023-04-07T19:03:21.802Z,8.40
2023-04-07T19:05:52.273Z,8.57
2023-04-07T19:08:20.453Z,7.95
2023-04-07T19:10:48.898Z,10.15
2023-04-07T19:13:18.982Z,7.40
2023-04-07T19:15:46.645Z,9.13
2023-04-07T19:18:14.184Z,9.55
2023-04-07T19:20:41.238Z,9.93
2023-04-07T19:23:08.618Z,10.25
2023-04-07T19:25:35.797Z,8.40
2023-04-07T19:28:03.254Z,12.23
2023-04-07T19:30:30.377Z,8.98
2023-04-07T19:32:57.924Z,10.15
2023-04-07T19:35:25.575Z,10.18
2023-04-07T19:37:53.781Z,9.75
2023-04-07T19:40:20.870Z,11.18
2023-04-07T19:42:48.268Z,11.57
2023-04-07T19:45:15.425Z,10.93
2023-04-07T19:47:43.533Z,11.68
2023-04-07T19:50:17.603Z,9.40
2023-04-07T19:52:45.572Z,11.90
2023-04-07T19:55:14.814Z,9.85
2023-04-07T19:57:42.141Z,11.85
2023-04-07T20:00:10.377Z,12.65
2023-04-07T20:02:49.010Z,10.20
2023-04-07T20:05:16.334Z,12.02
2023-04-07T20:07:44.846Z,10.32
2023-04-07T20:10:12.011Z,10.70
2023-04-07T20:12:39.654Z,8.18
2023-04-07T20:15:07.991Z,10.57
2023-04-07T20:17:36.974Z,13.73
2023-04-07T20:20:05.799Z,11.10
2023-04-07T20:22:34.158Z,7.72
2023-04-07T20:25:05.348Z,9.57
2023-04-07T20:27:33.706Z,9.18
2023-04-07T20:30:01.260Z,11.00
2023-04-07T20:32:29.119Z,12.07
2023-04-07T20:34:56.215Z,10.38
2023-04-07T20:37:23.662Z,11.07
2023-04-07T20:39:50.749Z,11.15
2023-04-07T20:42:18.065Z,12.82
2023-04-07T20:44:48.579Z,11.55
2023-04-07T20:47:16.686Z,11.45
2023-04-07T20:49:44.039Z,11.40
2023-04-07T20:52:11.664Z,12.57
2023-04-07T20:54:40.292Z,11.75
2023-04-07T20:57:07.665Z,11.23
2023-04-07T20:59:34.663Z,13.02
2023-04-07T21:02:02.071Z,11.13
2023-04-07T21:04:29.422Z,10.60
2023-04-07T21:06:57.002Z,12.95
2023-04-07T21:09:24.202Z,12.23
2023-04-07T21:11:51.698Z,10.50
2023-04-07T21:14:18.837Z,12.40
2023-04-07T21:16:46.299Z,11.23
2023-04-07T21:19:13.746Z,12.07
2023-04-07T21:21:41.271Z,10.68
2023-04-07T21:24:08.426Z,10.18
2023-04-07T21:26:36.473Z,11.63
2023-04-07T21:29:03.572Z,14.30
2023-04-07T21:31:30.960Z,10.82
2023-04-07T21:33:58.382Z,12.57
2023-04-07T21:36:27.043Z,11.60
2023-04-07T21:38:54.232Z,11.88
2023-04-07T21:41:22.113Z,10.82
2023-04-07T21:43:49.314Z,11.48
2023-04-07T21:46:17.064Z,10.63
2023-04-07T21:48:44.346Z,11.07
2023-04-07T21:51:12.007Z,13.52
2023-04-07T21:53:39.290Z,11.50
2023-04-07T21:56:09.359Z,10.77
2023-04-07T21:58:37.398Z,12.68
2023-04-07T22:01:05.146Z,11.40
2023-04-07T22:03:32.689Z,10.80
2023-04-07T22:06:01.167Z,13.25
2023-04-07T22:08:28.634Z,13.25
2023-04-07T22:10:56.766Z,11.73
2023-04-07T22:13:24.048Z,14.32
2023-04-07T22:15:52.112Z,13.32
2023-04-07T22:18:22.036Z,12.23
2023-04-07T22:20:49.657Z,11.23
2023-04-07T22:23:16.805Z,13.15
2023-04-07T22:25:44.266Z,11.20
2023-04-07T22:28:11.351Z,11.98
2023-04-07T22:30:38.773Z,12.38
2023-04-07T22:33:07.062Z,10.65
2023-04-07T22:35:34.863Z,12.02
2023-04-07T22:38:02.010Z,12.90
2023-04-07T22:40:29.433Z,12.27
2023-04-07T22:42:56.436Z,13.27
2023-04-07T22:45:23.856Z,10.30
2023-04-07T22:47:51.625Z,11.48
2023-04-07T22:50:19.293Z,11.77
2023-04-07T22:52:46.519Z,13.27
2023-04-07T22:55:14.950Z,14.20
2023-04-07T22:57:43.175Z,12.63
2023-04-07T23:00:12.041Z,12.30
2023-04-07T23:02:39.793Z,11.15
2023-04-07T23:05:07.842Z,11.77
2023-04-07T23:07:34.923Z,11.38
2023-04-07T23:10:02.781Z,12.63
2023-04-07T23:12:30.062Z,13.52
2023-04-07T23:14:57.647Z,13.77
2023-04-07T23:17:24.814Z,14.52
2023-04-07T23:19:52.134Z,15.25
2023-04-07T23:22:19.200Z,12.68
2023-04-07T23:24:47.068Z,15.70
2023-04-07T23:27:14.108Z,13.07
2023-04-07T23:29:41.353Z,12.45
2023-04-07T23:32:08.502Z,13.13
2023-04-07T23:34:35.987Z,14.70
2023-04-07T23:37:03.251Z,13.48
2023-04-07T23:39:30.849Z,12.80
2023-04-07T23:41:58.015Z,13.30
2023-04-07T23:44:25.777Z,13.02
2023-04-07T23:46:52.974Z,13.57
2023-04-07T23:49:20.369Z,16.13
2023-04-07T23:51:47.499Z,13.27
2023-04-07T23:54:14.732Z,13.90
2023-04-07T23:56:42.385Z,14.10
2023-04-07T23:59:09.771Z,15.23
